sensor_id;sensor_type;location;lat;lon;timestamp;temperature;humidity
29663;DHT22;16578;53.266;7.920;2023-07-31T00:01:39;20.70;75.00
29663;DHT22;16578;53.266;7.920;2023-07-31T00:04:05;20.60;75.30
29663;DHT22;16578;53.266;7.920;2023-07-31T00:06:30;20.60;75.10
29663;DHT22;16578;53.266;7.920;2023-07-31T00:08:56;20.60;75.10
29663;DHT22;16578;53.266;7.920;2023-07-31T00:11:22;20.70;75.20
29663;DHT22;16578;53.266;7.920;2023-07-31T00:13:47;20.60;75.20
29663;DHT22;16578;53.266;7.920;2023-07-31T00:16:13;20.60;75.20
29663;DHT22;16578;53.266;7.920;2023-07-31T00:18:38;20.70;75.40
29663;DHT22;16578;53.266;7.920;2023-07-31T00:21:04;20.60;75.30
29663;DHT22;16578;53.266;7.920;2023-07-31T00:23:30;20.70;75.30
29663;DHT22;16578;53.266;7.920;2023-07-31T00:25:55;20.70;75.20
29663;DHT22;16578;53.266;7.920;2023-07-31T00:28:21;20.70;75.30
29663;DHT22;16578;53.266;7.920;2023-07-31T00:30:46;20.60;75.20
29663;DHT22;16578;53.266;7.920;2023-07-31T00:33:12;20.70;75.20
29663;DHT22;16578;53.266;7.920;2023-07-31T00:35:37;20.70;75.10
29663;DHT22;16578;53.266;7.920;2023-07-31T00:38:03;20.70;75.20
29663;DHT22;16578;53.266;7.920;2023-07-31T00:40:28;20.70;75.10
29663;DHT22;16578;53.266;7.920;2023-07-31T00:42:54;20.70;75.00
29663;DHT22;16578;53.266;7.920;2023-07-31T00:45:19;20.70;74.90
29663;DHT22;16578;53.266;7.920;2023-07-31T00:47:48;20.70;74.80
29663;DHT22;16578;53.266;7.920;2023-07-31T00:50:14;20.60;74.90
29663;DHT22;16578;53.266;7.920;2023-07-31T00:52:40;20.70;74.90
29663;DHT22;16578;53.266;7.920;2023-07-31T00:55:06;20.60;74.80
29663;DHT22;16578;53.266;7.920;2023-07-31T00:57:32;20.60;74.90
29663;DHT22;16578;53.266;7.920;2023-07-31T00:59:58;20.60;74.90
29663;DHT22;16578;53.266;7.920;2023-07-31T01:02:24;20.70;74.90
29663;DHT22;16578;53.266;7.920;2023-07-31T01:04:50;20.60;74.70
29663;DHT22;16578;53.266;7.920;2023-07-31T01:07:43;20.60;74.70
29663;DHT22;16578;53.266;7.920;2023-07-31T01:10:21;20.60;74.60
29663;DHT22;16578;53.266;7.920;2023-07-31T01:12:49;20.60;74.70
29663;DHT22;16578;53.266;7.920;2023-07-31T01:15:15;20.50;75.00
29663;DHT22;16578;53.266;7.920;2023-07-31T01:17:43;20.50;74.70
29663;DHT22;16578;53.266;7.920;2023-07-31T01:20:17;20.60;74.70
29663;DHT22;16578;53.266;7.920;2023-07-31T01:27:57;20.50;74.90
29663;DHT22;16578;53.266;7.920;2023-07-31T01:30:27;20.50;75.70
29663;DHT22;16578;53.266;7.920;2023-07-31T01:32:54;20.50;75.00
29663;DHT22;16578;53.266;7.920;2023-07-31T01:35:21;20.50;75.00
29663;DHT22;16578;53.266;7.920;2023-07-31T01:37:47;20.50;75.20
29663;DHT22;16578;53.266;7.920;2023-07-31T01:40:12;20.50;75.20
29663;DHT22;16578;53.266;7.920;2023-07-31T01:42:38;20.50;75.30
29663;DHT22;16578;53.266;7.920;2023-07-31T01:45:04;20.40;75.30
29663;DHT22;16578;53.266;7.920;2023-07-31T01:47:29;20.40;75.30
29663;DHT22;16578;53.266;7.920;2023-07-31T01:49:55;20.40;75.40
29663;DHT22;16578;53.266;7.920;2023-07-31T01:52:20;20.40;75.40
29663;DHT22;16578;53.266;7.920;2023-07-31T01:54:46;20.40;75.40
29663;DHT22;16578;53.266;7.920;2023-07-31T01:57:12;20.40;75.50
29663;DHT22;16578;53.266;7.920;2023-07-31T01:59:37;20.40;75.50
29663;DHT22;16578;53.266;7.920;2023-07-31T02:02:03;20.40;75.70
29663;DHT22;16578;53.266;7.920;2023-07-31T02:04:28;20.40;75.80
29663;DHT22;16578;53.266;7.920;2023-07-31T02:06:54;20.40;75.80
29663;DHT22;16578;53.266;7.920;2023-07-31T02:09:19;20.40;76.00
29663;DHT22;16578;53.266;7.920;2023-07-31T02:11:45;20.40;76.10
29663;DHT22;16578;53.266;7.920;2023-07-31T02:14:10;20.30;77.00
29663;DHT22;16578;53.266;7.920;2023-07-31T02:16:36;20.30;76.20
29663;DHT22;16578;53.266;7.920;2023-07-31T02:19:01;20.30;76.30
29663;DHT22;16578;53.266;7.920;2023-07-31T02:21:27;20.30;76.40
29663;DHT22;16578;53.266;7.920;2023-07-31T02:23:52;20.30;76.40
29663;DHT22;16578;53.266;7.920;2023-07-31T02:26:18;20.30;76.40
29663;DHT22;16578;53.266;7.920;2023-07-31T02:28:43;20.30;76.50
29663;DHT22;16578;53.266;7.920;2023-07-31T02:31:09;20.30;76.50
29663;DHT22;16578;53.266;7.920;2023-07-31T02:33:35;20.30;76.60
29663;DHT22;16578;53.266;7.920;2023-07-31T02:36:00;20.30;76.70
29663;DHT22;16578;53.266;7.920;2023-07-31T02:38:26;20.30;76.80
29663;DHT22;16578;53.266;7.920;2023-07-31T02:40:51;20.30;76.90
29663;DHT22;16578;53.266;7.920;2023-07-31T02:43:17;20.30;76.90
29663;DHT22;16578;53.266;7.920;2023-07-31T02:45:43;20.30;77.00
29663;DHT22;16578;53.266;7.920;2023-07-31T02:48:08;20.30;77.00
29663;DHT22;16578;53.266;7.920;2023-07-31T02:50:34;20.30;77.00
29663;DHT22;16578;53.266;7.920;2023-07-31T02:52:59;20.30;77.10
29663;DHT22;16578;53.266;7.920;2023-07-31T02:55:25;20.30;77.20
29663;DHT22;16578;53.266;7.920;2023-07-31T02:57:50;20.30;77.20
29663;DHT22;16578;53.266;7.920;2023-07-31T03:00:17;20.30;77.40
29663;DHT22;16578;53.266;7.920;2023-07-31T03:02:43;20.30;77.40
29663;DHT22;16578;53.266;7.920;2023-07-31T03:05:08;20.30;77.50
29663;DHT22;16578;53.266;7.920;2023-07-31T03:07:34;20.30;77.50
29663;DHT22;16578;53.266;7.920;2023-07-31T03:09:59;20.30;77.60
29663;DHT22;16578;53.266;7.920;2023-07-31T03:12:25;20.20;77.50
29663;DHT22;16578;53.266;7.920;2023-07-31T03:14:50;20.20;77.50
29663;DHT22;16578;53.266;7.920;2023-07-31T03:17:16;20.20;77.50
29663;DHT22;16578;53.266;7.920;2023-07-31T03:19:41;20.20;77.50
29663;DHT22;16578;53.266;7.920;2023-07-31T03:22:07;20.20;77.50
29663;DHT22;16578;53.266;7.920;2023-07-31T03:24:32;20.20;77.50
29663;DHT22;16578;53.266;7.920;2023-07-31T03:26:58;20.20;77.60
29663;DHT22;16578;53.266;7.920;2023-07-31T03:29:24;20.20;77.70
29663;DHT22;16578;53.266;7.920;2023-07-31T03:31:49;20.20;77.80
29663;DHT22;16578;53.266;7.920;2023-07-31T03:34:15;20.20;77.90
29663;DHT22;16578;53.266;7.920;2023-07-31T03:36:40;20.20;77.90
29663;DHT22;16578;53.266;7.920;2023-07-31T03:39:06;20.10;77.90
29663;DHT22;16578;53.266;7.920;2023-07-31T03:41:31;20.20;78.00
29663;DHT22;16578;53.266;7.920;2023-07-31T03:43:57;20.20;78.00
29663;DHT22;16578;53.266;7.920;2023-07-31T03:46:23;20.10;77.90
29663;DHT22;16578;53.266;7.920;2023-07-31T03:48:49;20.10;78.00
29663;DHT22;16578;53.266;7.920;2023-07-31T03:51:15;20.10;78.00
29663;DHT22;16578;53.266;7.920;2023-07-31T03:53:40;20.20;78.20
29663;DHT22;16578;53.266;7.920;2023-07-31T03:56:06;20.10;78.20
29663;DHT22;16578;53.266;7.920;2023-07-31T03:58:31;20.10;78.20
29663;DHT22;16578;53.266;7.920;2023-07-31T04:00:57;20.10;78.20
29663;DHT22;16578;53.266;7.920;2023-07-31T04:03:23;20.10;78.30
29663;DHT22;16578;53.266;7.920;2023-07-31T04:05:48;20.10;78.30
29663;DHT22;16578;53.266;7.920;2023-07-31T04:08:14;20.10;78.30
29663;DHT22;16578;53.266;7.920;2023-07-31T04:10:39;20.10;78.40
29663;DHT22;16578;53.266;7.920;2023-07-31T04:13:05;20.10;78.40
29663;DHT22;16578;53.266;7.920;2023-07-31T04:15:30;20.10;78.40
29663;DHT22;16578;53.266;7.920;2023-07-31T04:17:56;20.10;78.40
29663;DHT22;16578;53.266;7.920;2023-07-31T04:20:22;20.10;78.40
29663;DHT22;16578;53.266;7.920;2023-07-31T04:22:47;20.10;78.40
29663;DHT22;16578;53.266;7.920;2023-07-31T04:25:13;20.10;78.40
29663;DHT22;16578;53.266;7.920;2023-07-31T04:27:39;20.10;78.40
29663;DHT22;16578;53.266;7.920;2023-07-31T04:30:05;20.10;78.30
29663;DHT22;16578;53.266;7.920;2023-07-31T04:32:31;20.10;78.30
29663;DHT22;16578;53.266;7.920;2023-07-31T04:34:57;20.10;78.40
29663;DHT22;16578;53.266;7.920;2023-07-31T04:37:22;20.10;78.50
29663;DHT22;16578;53.266;7.920;2023-07-31T04:39:48;20.10;78.60
29663;DHT22;16578;53.266;7.920;2023-07-31T04:42:13;20.10;78.60
29663;DHT22;16578;53.266;7.920;2023-07-31T04:44:40;20.10;78.60
29663;DHT22;16578;53.266;7.920;2023-07-31T04:47:05;20.10;78.70
29663;DHT22;16578;53.266;7.920;2023-07-31T04:49:32;20.10;78.70
29663;DHT22;16578;53.266;7.920;2023-07-31T04:51:57;20.10;79.60
29663;DHT22;16578;53.266;7.920;2023-07-31T04:54:23;20.10;78.70
29663;DHT22;16578;53.266;7.920;2023-07-31T04:56:48;20.10;78.60
29663;DHT22;16578;53.266;7.920;2023-07-31T04:59:14;20.10;78.70
29663;DHT22;16578;53.266;7.920;2023-07-31T05:01:39;20.10;78.70
29663;DHT22;16578;53.266;7.920;2023-07-31T05:04:05;20.10;78.80
29663;DHT22;16578;53.266;7.920;2023-07-31T05:06:30;20.10;78.90
29663;DHT22;16578;53.266;7.920;2023-07-31T05:08:56;20.10;79.00
29663;DHT22;16578;53.266;7.920;2023-07-31T05:11:22;20.10;79.00
29663;DHT22;16578;53.266;7.920;2023-07-31T05:13:47;20.10;79.10
29663;DHT22;16578;53.266;7.920;2023-07-31T05:16:13;20.20;79.30
29663;DHT22;16578;53.266;7.920;2023-07-31T05:18:38;20.20;79.30
29663;DHT22;16578;53.266;7.920;2023-07-31T05:21:04;20.20;79.30
29663;DHT22;16578;53.266;7.920;2023-07-31T05:23:29;20.20;79.30
29663;DHT22;16578;53.266;7.920;2023-07-31T05:26:03;20.20;79.50
29663;DHT22;16578;53.266;7.920;2023-07-31T05:28:28;20.30;79.50
29663;DHT22;16578;53.266;7.920;2023-07-31T05:31:02;20.20;79.40
29663;DHT22;16578;53.266;7.920;2023-07-31T05:33:27;20.30;79.40
29663;DHT22;16578;53.266;7.920;2023-07-31T05:35:53;20.30;79.30
29663;DHT22;16578;53.266;7.920;2023-07-31T05:38:19;20.30;79.40
29663;DHT22;16578;53.266;7.920;2023-07-31T05:40:44;20.30;79.40
29663;DHT22;16578;53.266;7.920;2023-07-31T05:43:10;20.30;79.20
29663;DHT22;16578;53.266;7.920;2023-07-31T05:45:36;20.30;79.20
29663;DHT22;16578;53.266;7.920;2023-07-31T05:48:02;20.30;79.30
29663;DHT22;16578;53.266;7.920;2023-07-31T05:50:28;20.30;79.10
29663;DHT22;16578;53.266;7.920;2023-07-31T05:52:53;20.30;79.10
29663;DHT22;16578;53.266;7.920;2023-07-31T05:55:19;20.30;79.10
29663;DHT22;16578;53.266;7.920;2023-07-31T05:57:45;20.30;79.10
29663;DHT22;16578;53.266;7.920;2023-07-31T06:00:12;20.30;79.10
29663;DHT22;16578;53.266;7.920;2023-07-31T06:02:38;20.30;79.00
29663;DHT22;16578;53.266;7.920;2023-07-31T06:05:04;20.30;79.10
29663;DHT22;16578;53.266;7.920;2023-07-31T06:07:31;20.30;79.10
29663;DHT22;16578;53.266;7.920;2023-07-31T06:09:57;20.30;79.20
29663;DHT22;16578;53.266;7.920;2023-07-31T06:12:28;20.30;79.30
29663;DHT22;16578;53.266;7.920;2023-07-31T06:14:54;20.30;79.20
29663;DHT22;16578;53.266;7.920;2023-07-31T06:17:20;20.30;79.30
29663;DHT22;16578;53.266;7.920;2023-07-31T06:19:46;20.30;79.30
29663;DHT22;16578;53.266;7.920;2023-07-31T06:22:12;20.40;80.30
29663;DHT22;16578;53.266;7.920;2023-07-31T06:24:37;20.30;79.40
29663;DHT22;16578;53.266;7.920;2023-07-31T06:27:03;20.40;79.50
29663;DHT22;16578;53.266;7.920;2023-07-31T06:29:29;20.40;79.60
29663;DHT22;16578;53.266;7.920;2023-07-31T06:31:55;20.40;79.60
29663;DHT22;16578;53.266;7.920;2023-07-31T06:34:21;20.40;79.70
29663;DHT22;16578;53.266;7.920;2023-07-31T06:36:46;20.50;79.70
29663;DHT22;16578;53.266;7.920;2023-07-31T06:39:12;20.50;79.80
29663;DHT22;16578;53.266;7.920;2023-07-31T06:41:38;20.50;79.60
29663;DHT22;16578;53.266;7.920;2023-07-31T06:44:03;20.50;79.60
29663;DHT22;16578;53.266;7.920;2023-07-31T06:46:29;20.50;79.60
29663;DHT22;16578;53.266;7.920;2023-07-31T06:48:55;20.50;79.60
29663;DHT22;16578;53.266;7.920;2023-07-31T06:51:20;20.50;79.60
29663;DHT22;16578;53.266;7.920;2023-07-31T06:53:46;20.60;79.60
29663;DHT22;16578;53.266;7.920;2023-07-31T06:56:12;20.50;79.60
29663;DHT22;16578;53.266;7.920;2023-07-31T06:58:37;20.50;79.60
29663;DHT22;16578;53.266;7.920;2023-07-31T07:01:03;20.50;80.60
29663;DHT22;16578;53.266;7.920;2023-07-31T07:03:29;20.50;79.80
29663;DHT22;16578;53.266;7.920;2023-07-31T07:05:55;20.50;79.70
29663;DHT22;16578;53.266;7.920;2023-07-31T07:08:20;20.50;79.80
29663;DHT22;16578;53.266;7.920;2023-07-31T07:10:46;20.50;79.80
29663;DHT22;16578;53.266;7.920;2023-07-31T07:13:12;20.50;79.80
29663;DHT22;16578;53.266;7.920;2023-07-31T07:15:38;20.50;79.80
29663;DHT22;16578;53.266;7.920;2023-07-31T07:18:04;20.50;80.80
29663;DHT22;16578;53.266;7.920;2023-07-31T07:20:30;20.50;80.10
29663;DHT22;16578;53.266;7.920;2023-07-31T07:22:55;20.50;80.10
29663;DHT22;16578;53.266;7.920;2023-07-31T07:25:21;20.50;80.10
29663;DHT22;16578;53.266;7.920;2023-07-31T07:27:46;20.50;80.20
29663;DHT22;16578;53.266;7.920;2023-07-31T07:30:12;20.50;80.20
29663;DHT22;16578;53.266;7.920;2023-07-31T07:32:39;20.50;80.30
29663;DHT22;16578;53.266;7.920;2023-07-31T07:35:05;20.60;80.40
29663;DHT22;16578;53.266;7.920;2023-07-31T07:37:31;20.60;80.60
29663;DHT22;16578;53.266;7.920;2023-07-31T07:39:57;20.60;80.60
29663;DHT22;16578;53.266;7.920;2023-07-31T07:42:23;20.60;80.70
29663;DHT22;16578;53.266;7.920;2023-07-31T07:44:48;20.60;80.90
29663;DHT22;16578;53.266;7.920;2023-07-31T07:47:14;20.60;80.90
29663;DHT22;16578;53.266;7.920;2023-07-31T07:49:39;20.70;81.00
29663;DHT22;16578;53.266;7.920;2023-07-31T07:52:05;20.70;81.00
29663;DHT22;16578;53.266;7.920;2023-07-31T07:54:31;20.70;81.00
29663;DHT22;16578;53.266;7.920;2023-07-31T07:56:56;20.80;81.10
29663;DHT22;16578;53.266;7.920;2023-07-31T07:59:22;20.80;81.00
29663;DHT22;16578;53.266;7.920;2023-07-31T08:01:48;20.80;81.10
29663;DHT22;16578;53.266;7.920;2023-07-31T08:04:13;20.80;81.10
29663;DHT22;16578;53.266;7.920;2023-07-31T08:06:39;20.90;82.20
29663;DHT22;16578;53.266;7.920;2023-07-31T08:09:05;20.90;81.40
29663;DHT22;16578;53.266;7.920;2023-07-31T08:11:35;20.90;81.40
29663;DHT22;16578;53.266;7.920;2023-07-31T08:14:00;21.00;81.40
29663;DHT22;16578;53.266;7.920;2023-07-31T08:16:26;21.00;81.40
29663;DHT22;16578;53.266;7.920;2023-07-31T08:18:51;21.00;81.50
29663;DHT22;16578;53.266;7.920;2023-07-31T08:21:17;21.00;81.40
29663;DHT22;16578;53.266;7.920;2023-07-31T08:23:42;21.10;81.50
29663;DHT22;16578;53.266;7.920;2023-07-31T08:26:13;21.10;81.50
29663;DHT22;16578;53.266;7.920;2023-07-31T08:28:39;21.10;81.80
29663;DHT22;16578;53.266;7.920;2023-07-31T08:31:05;21.10;81.30
29663;DHT22;16578;53.266;7.920;2023-07-31T08:33:31;21.10;81.20
29663;DHT22;16578;53.266;7.920;2023-07-31T08:35:56;21.10;81.10
29663;DHT22;16578;53.266;7.920;2023-07-31T08:38:22;21.20;81.10
29663;DHT22;16578;53.266;7.920;2023-07-31T08:40:50;21.20;81.00
29663;DHT22;16578;53.266;7.920;2023-07-31T08:43:16;21.20;80.90
29663;DHT22;16578;53.266;7.920;2023-07-31T08:45:42;21.20;81.00
29663;DHT22;16578;53.266;7.920;2023-07-31T08:48:07;21.20;81.00
29663;DHT22;16578;53.266;7.920;2023-07-31T08:50:33;21.20;80.90
29663;DHT22;16578;53.266;7.920;2023-07-31T08:52:58;21.20;80.90
29663;DHT22;16578;53.266;7.920;2023-07-31T08:55:24;21.20;80.90
29663;DHT22;16578;53.266;7.920;2023-07-31T08:57:51;21.20;80.90
29663;DHT22;16578;53.266;7.920;2023-07-31T09:00:18;21.20;81.00
29663;DHT22;16578;53.266;7.920;2023-07-31T09:02:59;21.20;81.00
29663;DHT22;16578;53.266;7.920;2023-07-31T09:05:29;21.20;80.90
29663;DHT22;16578;53.266;7.920;2023-07-31T09:07:55;21.20;80.90
29663;DHT22;16578;53.266;7.920;2023-07-31T09:10:22;21.20;80.90
29663;DHT22;16578;53.266;7.920;2023-07-31T09:12:48;21.20;80.90
29663;DHT22;16578;53.266;7.920;2023-07-31T09:15:14;21.20;80.90
29663;DHT22;16578;53.266;7.920;2023-07-31T09:17:40;21.20;80.90
29663;DHT22;16578;53.266;7.920;2023-07-31T09:20:17;21.20;81.10
29663;DHT22;16578;53.266;7.920;2023-07-31T09:22:44;21.30;81.30
29663;DHT22;16578;53.266;7.920;2023-07-31T09:27:51;21.20;81.30
29663;DHT22;16578;53.266;7.920;2023-07-31T09:30:17;21.20;81.30
29663;DHT22;16578;53.266;7.920;2023-07-31T09:32:44;21.20;81.30
29663;DHT22;16578;53.266;7.920;2023-07-31T09:35:19;21.20;81.40
29663;DHT22;16578;53.266;7.920;2023-07-31T09:38:09;21.30;81.60
29663;DHT22;16578;53.266;7.920;2023-07-31T09:40:37;21.30;81.60
29663;DHT22;16578;53.266;7.920;2023-07-31T09:43:13;21.20;81.50
29663;DHT22;16578;53.266;7.920;2023-07-31T09:45:42;21.30;81.60
29663;DHT22;16578;53.266;7.920;2023-07-31T09:48:13;21.30;81.50
29663;DHT22;16578;53.266;7.920;2023-07-31T09:50:42;21.30;81.50
29663;DHT22;16578;53.266;7.920;2023-07-31T09:53:09;21.30;81.50
29663;DHT22;16578;53.266;7.920;2023-07-31T09:55:36;21.30;81.50
29663;DHT22;16578;53.266;7.920;2023-07-31T09:58:07;21.30;81.50
29663;DHT22;16578;53.266;7.920;2023-07-31T10:00:33;21.30;81.50
29663;DHT22;16578;53.266;7.920;2023-07-31T10:03:01;21.30;81.50
29663;DHT22;16578;53.266;7.920;2023-07-31T10:06:08;21.30;81.50
29663;DHT22;16578;53.266;7.920;2023-07-31T10:08:30;21.30;81.60
29663;DHT22;16578;53.266;7.920;2023-07-31T10:11:00;21.30;81.70
29663;DHT22;16578;53.266;7.920;2023-07-31T10:13:28;21.30;81.70
29663;DHT22;16578;53.266;7.920;2023-07-31T10:18:52;21.40;81.90
29663;DHT22;16578;53.266;7.920;2023-07-31T10:21:19;21.40;81.80
29663;DHT22;16578;53.266;7.920;2023-07-31T10:23:45;21.40;81.90
29663;DHT22;16578;53.266;7.920;2023-07-31T10:26:13;21.40;81.90
29663;DHT22;16578;53.266;7.920;2023-07-31T10:28:40;21.40;81.90
29663;DHT22;16578;53.266;7.920;2023-07-31T10:31:06;21.50;82.00
29663;DHT22;16578;53.266;7.920;2023-07-31T10:33:32;21.50;81.90
29663;DHT22;16578;53.266;7.920;2023-07-31T10:36:33;21.50;81.90
29663;DHT22;16578;53.266;7.920;2023-07-31T10:38:59;21.60;82.20
29663;DHT22;16578;53.266;7.920;2023-07-31T10:41:32;21.50;82.00
29663;DHT22;16578;53.266;7.920;2023-07-31T10:44:01;21.60;82.10
29663;DHT22;16578;53.266;7.920;2023-07-31T10:46:28;21.60;82.00
29663;DHT22;16578;53.266;7.920;2023-07-31T10:48:59;21.60;82.00
29663;DHT22;16578;53.266;7.920;2023-07-31T10:51:35;21.60;81.90
29663;DHT22;16578;53.266;7.920;2023-07-31T10:54:15;21.70;81.90
29663;DHT22;16578;53.266;7.920;2023-07-31T10:56:46;21.70;82.00
29663;DHT22;16578;53.266;7.920;2023-07-31T10:59:13;21.70;82.00
29663;DHT22;16578;53.266;7.920;2023-07-31T11:02:08;21.70;82.10
29663;DHT22;16578;53.266;7.920;2023-07-31T11:05:06;21.70;82.10
29663;DHT22;16578;53.266;7.920;2023-07-31T11:07:48;21.70;82.20
29663;DHT22;16578;53.266;7.920;2023-07-31T11:10:17;21.80;82.40
29663;DHT22;16578;53.266;7.920;2023-07-31T11:12:42;21.80;82.20
29663;DHT22;16578;53.266;7.920;2023-07-31T11:15:08;21.80;82.20
29663;DHT22;16578;53.266;7.920;2023-07-31T11:17:39;21.80;82.30
29663;DHT22;16578;53.266;7.920;2023-07-31T11:20:05;21.80;82.30
29663;DHT22;16578;53.266;7.920;2023-07-31T11:22:31;21.80;82.40
29663;DHT22;16578;53.266;7.920;2023-07-31T11:24:58;21.90;82.40
29663;DHT22;16578;53.266;7.920;2023-07-31T11:27:27;21.90;82.40
29663;DHT22;16578;53.266;7.920;2023-07-31T11:29:59;21.90;82.60
29663;DHT22;16578;53.266;7.920;2023-07-31T11:32:25;21.90;82.70
29663;DHT22;16578;53.266;7.920;2023-07-31T11:34:52;22.00;83.00
29663;DHT22;16578;53.266;7.920;2023-07-31T11:37:18;22.00;83.00
29663;DHT22;16578;53.266;7.920;2023-07-31T11:39:44;22.10;83.40
29663;DHT22;16578;53.266;7.920;2023-07-31T11:42:23;22.10;83.10
29663;DHT22;16578;53.266;7.920;2023-07-31T11:44:48;22.10;82.90
29663;DHT22;16578;53.266;7.920;2023-07-31T11:47:16;22.10;82.80
29663;DHT22;16578;53.266;7.920;2023-07-31T11:49:42;22.20;82.70
29663;DHT22;16578;53.266;7.920;2023-07-31T11:52:08;22.20;82.80
29663;DHT22;16578;53.266;7.920;2023-07-31T11:54:34;22.30;82.80
29663;DHT22;16578;53.266;7.920;2023-07-31T11:57:00;22.30;82.90
29663;DHT22;16578;53.266;7.920;2023-07-31T11:59:27;22.30;82.90
29663;DHT22;16578;53.266;7.920;2023-07-31T12:01:53;22.40;82.80
29663;DHT22;16578;53.266;7.920;2023-07-31T12:04:19;22.40;82.80
29663;DHT22;16578;53.266;7.920;2023-07-31T12:06:47;22.40;82.80
29663;DHT22;16578;53.266;7.920;2023-07-31T12:09:14;22.40;82.70
29663;DHT22;16578;53.266;7.920;2023-07-31T12:11:47;22.40;82.60
29663;DHT22;16578;53.266;7.920;2023-07-31T12:14:27;22.50;82.50
29663;DHT22;16578;53.266;7.920;2023-07-31T12:17:01;22.50;82.50
29663;DHT22;16578;53.266;7.920;2023-07-31T12:19:29;22.50;82.50
29663;DHT22;16578;53.266;7.920;2023-07-31T12:21:59;22.50;82.50
29663;DHT22;16578;53.266;7.920;2023-07-31T12:24:26;22.50;82.60
29663;DHT22;16578;53.266;7.920;2023-07-31T12:26:52;22.50;82.60
29663;DHT22;16578;53.266;7.920;2023-07-31T12:29:18;22.50;82.70
29663;DHT22;16578;53.266;7.920;2023-07-31T12:31:43;22.50;82.80
29663;DHT22;16578;53.266;7.920;2023-07-31T12:34:19;22.60;82.90
29663;DHT22;16578;53.266;7.920;2023-07-31T12:36:48;22.60;83.00
29663;DHT22;16578;53.266;7.920;2023-07-31T12:39:14;22.60;83.00
29663;DHT22;16578;53.266;7.920;2023-07-31T12:41:40;22.60;82.80
29663;DHT22;16578;53.266;7.920;2023-07-31T12:44:05;22.60;82.70
29663;DHT22;16578;53.266;7.920;2023-07-31T12:46:31;22.60;82.70
29663;DHT22;16578;53.266;7.920;2023-07-31T12:48:57;22.60;82.60
29663;DHT22;16578;53.266;7.920;2023-07-31T12:51:22;22.70;82.60
29663;DHT22;16578;53.266;7.920;2023-07-31T12:53:48;22.70;82.50
29663;DHT22;16578;53.266;7.920;2023-07-31T12:56:13;22.70;82.40
29663;DHT22;16578;53.266;7.920;2023-07-31T12:58:39;22.70;82.40
29663;DHT22;16578;53.266;7.920;2023-07-31T13:01:04;22.70;82.50
29663;DHT22;16578;53.266;7.920;2023-07-31T13:03:31;22.70;82.40
29663;DHT22;16578;53.266;7.920;2023-07-31T13:05:57;22.70;82.40
29663;DHT22;16578;53.266;7.920;2023-07-31T13:08:22;22.70;82.40
29663;DHT22;16578;53.266;7.920;2023-07-31T13:10:48;22.70;82.40
29663;DHT22;16578;53.266;7.920;2023-07-31T13:13:13;22.70;82.50
29663;DHT22;16578;53.266;7.920;2023-07-31T13:15:39;22.70;82.70
29663;DHT22;16578;53.266;7.920;2023-07-31T13:18:05;22.70;82.80
29663;DHT22;16578;53.266;7.920;2023-07-31T13:20:30;22.70;83.00
29663;DHT22;16578;53.266;7.920;2023-07-31T13:22:56;22.70;83.10
29663;DHT22;16578;53.266;7.920;2023-07-31T13:25:21;22.80;83.20
29663;DHT22;16578;53.266;7.920;2023-07-31T13:27:47;22.80;83.20
29663;DHT22;16578;53.266;7.920;2023-07-31T13:30:12;22.80;83.20
29663;DHT22;16578;53.266;7.920;2023-07-31T13:32:38;22.80;83.10
29663;DHT22;16578;53.266;7.920;2023-07-31T13:35:05;22.80;82.90
29663;DHT22;16578;53.266;7.920;2023-07-31T13:37:31;22.80;82.80
29663;DHT22;16578;53.266;7.920;2023-07-31T13:39:57;22.90;82.70
29663;DHT22;16578;53.266;7.920;2023-07-31T13:42:22;22.90;82.60
29663;DHT22;16578;53.266;7.920;2023-07-31T13:44:48;22.90;83.40
29663;DHT22;16578;53.266;7.920;2023-07-31T13:47:13;22.90;82.50
29663;DHT22;16578;53.266;7.920;2023-07-31T13:49:39;22.90;82.60
29663;DHT22;16578;53.266;7.920;2023-07-31T13:52:04;22.90;82.50
29663;DHT22;16578;53.266;7.920;2023-07-31T13:54:30;22.90;82.60
29663;DHT22;16578;53.266;7.920;2023-07-31T13:56:56;22.90;82.50
29663;DHT22;16578;53.266;7.920;2023-07-31T13:59:21;22.90;82.60
29663;DHT22;16578;53.266;7.920;2023-07-31T14:01:47;22.90;82.50
29663;DHT22;16578;53.266;7.920;2023-07-31T14:04:13;22.90;82.50
29663;DHT22;16578;53.266;7.920;2023-07-31T14:06:39;22.90;82.50
29663;DHT22;16578;53.266;7.920;2023-07-31T14:09:05;22.90;82.40
29663;DHT22;16578;53.266;7.920;2023-07-31T14:11:31;22.90;82.40
29663;DHT22;16578;53.266;7.920;2023-07-31T14:13:56;22.90;82.40
29663;DHT22;16578;53.266;7.920;2023-07-31T14:16:22;22.90;82.20
29663;DHT22;16578;53.266;7.920;2023-07-31T14:18:48;22.90;82.20
29663;DHT22;16578;53.266;7.920;2023-07-31T14:21:18;22.80;82.20
29663;DHT22;16578;53.266;7.920;2023-07-31T14:23:44;22.80;82.30
29663;DHT22;16578;53.266;7.920;2023-07-31T14:26:10;22.80;82.30
29663;DHT22;16578;53.266;7.920;2023-07-31T14:28:36;22.80;82.50
29663;DHT22;16578;53.266;7.920;2023-07-31T14:31:01;22.80;82.50
29663;DHT22;16578;53.266;7.920;2023-07-31T14:33:27;22.80;82.50
29663;DHT22;16578;53.266;7.920;2023-07-31T14:35:52;22.80;82.40
29663;DHT22;16578;53.266;7.920;2023-07-31T14:38:18;22.80;82.30
29663;DHT22;16578;53.266;7.920;2023-07-31T14:40:44;22.80;82.40
29663;DHT22;16578;53.266;7.920;2023-07-31T14:43:09;22.80;82.50
29663;DHT22;16578;53.266;7.920;2023-07-31T14:45:35;22.80;82.50
29663;DHT22;16578;53.266;7.920;2023-07-31T14:48:00;22.80;82.60
29663;DHT22;16578;53.266;7.920;2023-07-31T14:50:26;22.80;82.70
29663;DHT22;16578;53.266;7.920;2023-07-31T14:52:52;22.80;82.70
29663;DHT22;16578;53.266;7.920;2023-07-31T14:55:18;22.80;82.80
29663;DHT22;16578;53.266;7.920;2023-07-31T14:57:44;22.80;82.90
29663;DHT22;16578;53.266;7.920;2023-07-31T15:00:09;22.80;83.00
29663;DHT22;16578;53.266;7.920;2023-07-31T15:02:36;22.90;83.10
29663;DHT22;16578;53.266;7.920;2023-07-31T15:05:02;22.90;83.10
29663;DHT22;16578;53.266;7.920;2023-07-31T15:07:27;22.90;83.10
29663;DHT22;16578;53.266;7.920;2023-07-31T15:09:53;23.00;83.10
29663;DHT22;16578;53.266;7.920;2023-07-31T15:12:18;23.00;83.10
29663;DHT22;16578;53.266;7.920;2023-07-31T15:14:44;23.00;83.10
29663;DHT22;16578;53.266;7.920;2023-07-31T15:17:09;23.10;83.10
29663;DHT22;16578;53.266;7.920;2023-07-31T15:19:35;23.10;83.10
29663;DHT22;16578;53.266;7.920;2023-07-31T15:22:02;23.10;83.10
29663;DHT22;16578;53.266;7.920;2023-07-31T15:24:28;23.10;83.00
29663;DHT22;16578;53.266;7.920;2023-07-31T15:26:54;23.20;82.90
29663;DHT22;16578;53.266;7.920;2023-07-31T15:29:20;23.20;82.80
29663;DHT22;16578;53.266;7.920;2023-07-31T15:31:46;23.20;82.70
29663;DHT22;16578;53.266;7.920;2023-07-31T15:34:13;23.20;82.70
29663;DHT22;16578;53.266;7.920;2023-07-31T15:36:39;23.30;82.80
29663;DHT22;16578;53.266;7.920;2023-07-31T15:39:05;23.20;82.60